createdAt,value
2022-09-01T00:00:23.554Z,100502.72
2022-09-01T00:05:25.501Z,100506.94
2022-09-01T00:10:26.938Z,100507.28
2022-09-01T00:15:28.352Z,100510.34
2022-09-01T00:20:29.865Z,100511.69
2022-09-01T00:25:31.186Z,100518.28
2022-09-01T00:30:32.576Z,100515.75
2022-09-01T00:35:36.773Z,100520.50
2022-09-01T00:40:39.009Z,100510.06
2022-09-01T00:45:41.911Z,100508.06
2022-09-01T00:50:43.629Z,100506.25
2022-09-01T00:55:48.680Z,100499.00
2022-09-01T01:00:52.652Z,100503.78
2022-09-01T01:05:58.195Z,100495.16
2022-09-01T01:11:08.510Z,100511.38
2022-09-01T01:16:10.894Z,100497.28
2022-09-01T01:22:06.345Z,100492.34
2022-09-01T01:27:07.677Z,100488.63
2022-09-01T01:32:12.185Z,100480.41
2022-09-01T01:37:16.912Z,100490.34
2022-09-01T01:42:18.575Z,100473.47
2022-09-01T01:47:20.398Z,100476.34
2022-09-01T01:52:25.065Z,100480.56
2022-09-01T01:57:31.791Z,100474.16
2022-09-01T02:02:33.195Z,100482.25
2022-09-01T02:07:34.556Z,100477.75
2022-09-01T02:12:37.859Z,100476.22
2022-09-01T02:17:39.737Z,100469.66
2022-09-01T02:22:43.925Z,100475.88
2022-09-01T02:27:46.825Z,100462.03
2022-09-01T02:32:48.186Z,100464.75
2022-09-01T02:37:51.262Z,100470.53
2022-09-01T02:42:55.214Z,100470.88
2022-09-01T02:47:57.154Z,100465.81
2022-09-01T02:53:03.904Z,100460.41
2022-09-01T02:58:08.053Z,100476.94
2022-09-01T03:03:10.009Z,100474.91
2022-09-01T03:08:15.994Z,100464.13
2022-09-01T03:13:20.526Z,100465.84
2022-09-01T03:18:21.967Z,100456.09
2022-09-01T03:23:25.274Z,100450.69
2022-09-01T03:28:27.605Z,100462.47
2022-09-01T03:33:30.981Z,100455.91
2022-09-01T03:38:34.028Z,100456.75
2022-09-01T03:43:35.802Z,100464.16
2022-09-01T03:48:39.034Z,100456.44
2022-09-01T03:53:40.598Z,100453.25
2022-09-01T03:58:46.930Z,100450.03
2022-09-01T04:03:48.788Z,100458.81
2022-09-01T04:08:55.257Z,100461.84
2022-09-01T04:13:56.570Z,100448.53
2022-09-01T04:19:00.354Z,100457.63
2022-09-01T04:24:05.101Z,100463.31
2022-09-01T04:29:08.970Z,100465.53
2022-09-01T04:34:13.874Z,100465.50
2022-09-01T04:39:15.198Z,100452.06
2022-09-01T04:44:18.834Z,100456.44
2022-09-01T04:49:24.115Z,100464.00
2022-09-01T04:54:25.452Z,100462.81
2022-09-01T04:59:28.377Z,100462.78
2022-09-01T05:04:33.731Z,100462.78
2022-09-01T05:09:37.049Z,100464.03
2022-09-01T05:14:44.113Z,100473.13
2022-09-01T05:19:48.252Z,100482.06
2022-09-01T05:24:51.440Z,100473.19
2022-09-01T05:30:00.060Z,100478.06
2022-09-01T05:35:02.184Z,100488.00
2022-09-01T05:40:09.670Z,100490.88
2022-09-01T05:45:14.211Z,100485.00
2022-09-01T05:50:19.270Z,100491.09
2022-09-01T05:55:20.741Z,100489.88
2022-09-01T06:00:23.005Z,100495.13
2022-09-01T06:05:27.001Z,100485.03
2022-09-01T06:10:29.642Z,100486.06
2022-09-01T06:15:32.278Z,100494.00
2022-09-01T06:20:34.023Z,100490.44
2022-09-01T06:25:39.461Z,100499.22
2022-09-01T06:30:42.601Z,100504.94
2022-09-01T06:35:46.987Z,100493.84
2022-09-01T06:40:48.555Z,100515.72
2022-09-01T06:45:54.593Z,100510.97
2022-09-01T06:51:17.296Z,100513.69
2022-09-01T06:56:20.298Z,100508.28
2022-09-01T07:01:23.964Z,100511.94
2022-09-01T07:17:27.642Z,100510.66
2022-09-01T07:22:38.293Z,100526.09
2022-09-01T07:27:50.707Z,100526.84
2022-09-01T07:32:52.905Z,100510.53
2022-09-01T07:43:27.292Z,100520.09
2022-09-01T07:53:53.269Z,100522.91
2022-09-01T07:58:54.721Z,100531.09
2022-09-01T08:03:59.450Z,100529.41
2022-09-01T08:09:00.927Z,100530.06
2022-09-01T08:14:02.320Z,100535.13
2022-09-01T08:19:03.759Z,100538.25
2022-09-01T08:24:05.253Z,100540.56
2022-09-01T08:29:06.660Z,100541.28
2022-09-01T08:34:08.777Z,100536.97
2022-09-01T08:39:10.087Z,100540.19
2022-09-01T08:44:37.243Z,100543.72
2022-09-01T08:49:43.866Z,100545.16
2022-09-01T08:54:50.656Z,100542.44
2022-09-01T08:59:52.985Z,100535.97
2022-09-01T09:05:22.847Z,100543.03
2022-09-01T09:10:30.248Z,100539.41
2022-09-01T09:15:40.292Z,100537.78
2022-09-01T09:20:42.846Z,100525.84
2022-09-01T09:25:44.222Z,100525.00
2022-09-01T09:30:45.622Z,100515.13
2022-09-01T09:35:47.182Z,100514.78
2022-09-01T09:41:18.412Z,100507.91
2022-09-01T09:46:25.333Z,100506.00
2022-09-01T09:51:28.898Z,100493.91
2022-09-01T09:56:30.929Z,100496.88
2022-09-01T10:01:34.796Z,100477.94
2022-09-01T10:06:47.264Z,100471.06
2022-09-01T10:11:59.132Z,100473.25
2022-09-01T10:17:04.837Z,100474.13
2022-09-01T10:22:10.002Z,100470.22
2022-09-01T10:27:23.258Z,100470.75
2022-09-01T10:32:36.921Z,100464.69
2022-09-01T10:37:41.436Z,100463.38
2022-09-01T10:42:46.173Z,100458.88
2022-09-01T10:47:47.615Z,100456.31
2022-09-01T10:52:51.216Z,100454.56
2022-09-01T11:03:57.465Z,100440.94
2022-09-01T11:09:06.130Z,100436.09
2022-09-01T11:14:19.997Z,100438.28
2022-09-01T11:19:26.364Z,100435.22
2022-09-01T11:24:38.134Z,100431.22
2022-09-01T11:29:55.852Z,100432.97
2022-09-01T11:34:57.884Z,100419.94
2022-09-01T11:40:04.195Z,100406.94
2022-09-01T11:45:25.362Z,100413.63
2022-09-01T11:50:36.033Z,100404.13
2022-09-01T11:55:40.713Z,100404.16
2022-09-01T12:00:42.922Z,100391.56
2022-09-01T12:05:46.880Z,100382.19
2022-09-01T12:10:48.458Z,100375.97
2022-09-01T12:16:24.090Z,100379.69
2022-09-01T12:21:33.304Z,100366.97
2022-09-01T12:26:34.715Z,100361.34
2022-09-01T12:31:37.482Z,100354.22
2022-09-01T12:36:38.998Z,100347.44
2022-09-01T12:41:40.567Z,100343.69
2022-09-01T12:46:46.678Z,100343.88
2022-09-01T12:51:48.647Z,100338.88
2022-09-01T12:56:51.207Z,100343.56
2022-09-01T13:01:53.551Z,100331.72
2022-09-01T13:07:06.148Z,100334.31
2022-09-01T13:12:15.866Z,100325.66
2022-09-01T13:17:17.662Z,100320.59
2022-09-01T13:22:18.997Z,100320.53
2022-09-01T13:27:22.128Z,100326.59
2022-09-01T13:32:24.538Z,100318.31
2022-09-01T13:37:26.160Z,100316.41
2022-09-01T13:42:28.747Z,100313.38
2022-09-01T13:47:30.941Z,100308.69
2022-09-01T13:52:33.061Z,100306.19
2022-09-01T13:57:36.636Z,100297.22
2022-09-01T14:02:48.917Z,100303.16
2022-09-01T14:07:50.170Z,100288.13
2022-09-01T14:12:51.959Z,100287.19
2022-09-01T14:17:56.399Z,100291.38
2022-09-01T14:22:58.402Z,100282.38
2022-09-01T14:28:04.372Z,100280.69
2022-09-01T14:33:07.712Z,100276.38
2022-09-01T14:38:10.197Z,100276.13
2022-09-01T14:43:13.987Z,100271.94
2022-09-01T14:48:17.882Z,100270.31
2022-09-01T14:53:19.752Z,100270.66
2022-09-01T14:58:21.356Z,100257.84
2022-09-01T15:03:26.664Z,100252.03
2022-09-01T15:08:28.234Z,100248.44
2022-09-01T15:13:29.607Z,100249.75
2022-09-01T15:18:31.365Z,100250.00
2022-09-01T15:23:32.682Z,100243.22
2022-09-01T15:28:34.066Z,100240.38
2022-09-01T15:33:35.405Z,100240.25
2022-09-01T15:38:39.793Z,100230.34
2022-09-01T15:43:41.103Z,100241.75
2022-09-01T15:48:45.733Z,100236.59
2022-09-01T15:53:47.182Z,100231.69
2022-09-01T15:59:00.570Z,100233.13
2022-09-01T16:04:04.712Z,100244.03
2022-09-01T16:09:07.107Z,100239.50
2022-09-01T16:14:08.661Z,100234.19
2022-09-01T16:19:52.270Z,100235.31
2022-09-01T16:24:57.699Z,100218.81
2022-09-01T16:30:08.073Z,100223.00
2022-09-01T16:35:09.518Z,100219.13
2022-09-01T16:40:42.347Z,100225.25
2022-09-01T16:46:10.724Z,100224.50
2022-09-01T16:51:43.337Z,100223.13
2022-09-01T16:56:55.349Z,100218.94
2022-09-01T17:02:29.529Z,100218.19
2022-09-01T17:07:52.049Z,100216.34
2022-09-01T17:12:58.540Z,100219.16
2022-09-01T17:18:21.924Z,100214.59
2022-09-01T17:23:28.524Z,100209.09
2022-09-01T17:28:47.905Z,100202.50
2022-09-01T17:34:06.233Z,100213.22
2022-09-01T17:39:36.350Z,100214.50
2022-09-01T17:44:56.153Z,100214.56
2022-09-01T17:49:57.581Z,100221.25
2022-09-01T17:55:17.770Z,100216.94
2022-09-01T18:00:39.931Z,100210.44
2022-09-01T18:06:00.319Z,100205.66
2022-09-01T18:11:16.844Z,100220.47
2022-09-01T18:16:36.481Z,100221.53
2022-09-01T18:21:48.800Z,100238.91
2022-09-01T18:26:51.466Z,100234.72
2022-09-01T18:32:14.172Z,100247.03
2022-09-01T18:37:43.476Z,100252.25
2022-09-01T18:42:50.751Z,100258.50
2022-09-01T18:47:55.278Z,100246.81
2022-09-01T18:53:05.357Z,100263.09
2022-09-01T18:58:15.607Z,100256.78
2022-09-01T19:03:35.638Z,100270.09
2022-09-01T19:09:14.612Z,100267.19
2022-09-01T19:19:59.712Z,100278.81
2022-09-01T19:25:28.402Z,100278.16
2022-09-01T19:30:35.479Z,100278.75
2022-09-01T19:35:40.253Z,100283.13
2022-09-01T19:40:44.403Z,100281.19
2022-09-01T19:45:59.307Z,100292.84
2022-09-01T19:51:07.954Z,100283.41
2022-09-01T19:56:28.565Z,100298.53
2022-09-01T20:01:59.198Z,100298.88
2022-09-01T20:07:02.195Z,100294.25
2022-09-01T20:12:12.129Z,100300.06
2022-09-01T20:17:25.644Z,100299.66
2022-09-01T20:22:46.711Z,100297.06
2022-09-01T20:27:56.003Z,100300.56
2022-09-01T20:33:09.865Z,100306.97
2022-09-01T20:38:48.411Z,100307.13
2022-09-01T20:43:54.120Z,100319.56
2022-09-01T20:48:56.851Z,100315.38
2022-09-01T20:54:15.088Z,100309.50
2022-09-01T20:59:25.462Z,100329.09
2022-09-01T21:04:30.016Z,100328.13
2022-09-01T21:09:52.850Z,100327.66
2022-09-01T21:15:07.644Z,100325.06
2022-09-01T21:20:36.561Z,100329.00
2022-09-01T21:25:37.882Z,100321.94
2022-09-01T21:30:39.515Z,100324.75
2022-09-01T21:35:40.934Z,100315.84
2022-09-01T21:40:42.889Z,100322.78
2022-09-01T21:45:44.398Z,100321.31
2022-09-01T21:50:46.077Z,100321.56
2022-09-01T21:55:47.454Z,100322.31
2022-09-01T22:00:49.011Z,100312.44
2022-09-01T22:05:51.138Z,100313.81
2022-09-01T22:10:54.275Z,100311.50
2022-09-01T22:15:55.648Z,100306.56
2022-09-01T22:21:08.941Z,100298.91
2022-09-01T22:26:21.783Z,100299.94
2022-09-01T22:31:25.035Z,100299.28
2022-09-01T22:36:29.900Z,100298.44
2022-09-01T22:41:32.375Z,100310.47
2022-09-01T22:46:35.626Z,100297.03
2022-09-01T22:51:41.738Z,100296.72
2022-09-01T22:56:43.982Z,100299.25
2022-09-01T23:01:47.490Z,100307.91
2022-09-01T23:06:51.888Z,100291.59
2022-09-01T23:11:53.562Z,100290.03
2022-09-01T23:16:55.156Z,100286.41
2022-09-01T23:21:56.539Z,100285.09
2022-09-01T23:26:58.118Z,100287.78
2022-09-01T23:31:59.553Z,100280.69
2022-09-01T23:37:01.023Z,100278.72
2022-09-01T23:42:02.376Z,100292.19
2022-09-01T23:47:04.132Z,100285.91
2022-09-01T23:52:06.007Z,100289.16
2022-09-01T23:57:08.892Z,100284.13
